Time;durP1;ratioP1;P1;durP2;ratioP2;P2;SDS_P1;SDS_P2;PMS_P1;PMS_P2;Temp;Humidity;BMP_temperature;BMP_pressure;BME280_temperature;BME280_humidity;BME280_pressure;Samples;Min_cycle;Max_cycle;Signal;HPM_P1;HPM_P2
2023/05/10 00:00:31;;;;;;;4.30;3.67;;;;;;;12.35;100.00;100692.75;1048747;28;20291;-78
2023/05/10 00:01:02;;;;;;;4.93;3.92;;;;;;;12.36;100.00;100693.56;1050107;28;20665;-79
2023/05/10 00:01:34;;;;;;;7.22;3.83;;;;;;;12.34;100.00;100690.31;1052255;28;20403;-79
2023/05/10 00:02:05;;;;;;;4.38;3.97;;;;;;;12.36;100.00;100693.56;1051806;28;20302;-79
2023/05/10 00:02:37;;;;;;;4.40;4.00;;;;;;;12.37;100.00;100689.84;1052405;28;20414;-79
2023/05/10 00:03:09;;;;;;;3.92;3.28;;;;;;;12.39;100.00;100682.41;1047881;28;20660;-79
2023/05/10 00:03:41;;;;;;;4.90;4.00;;;;;;;12.43;100.00;100685.44;1048548;28;20660;-78
2023/05/10 00:04:13;;;;;;;4.72;4.05;;;;;;;12.33;100.00;100691.38;1052243;28;20379;-79
2023/05/10 00:04:45;;;;;;;4.47;4.07;;;;;;;12.32;100.00;100687.84;1048190;28;20306;-79
2023/05/10 00:05:17;;;;;;;4.10;3.80;;;;;;;12.31;100.00;100690.75;1047508;28;20298;-79
2023/05/10 00:05:48;;;;;;;4.90;4.07;;;;;;;12.33;100.00;100691.38;1047573;28;20719;-78
2023/05/10 00:06:20;;;;;;;5.05;4.55;;;;;;;12.39;100.00;100687.75;1048398;28;20295;-78
2023/05/10 00:06:51;;;;;;;4.53;3.60;;;;;;;12.42;100.00;100692.63;1048030;28;20365;-78
2023/05/10 00:07:23;;;;;;;5.28;4.03;;;;;;;12.39;100.00;100690.44;1048401;28;20299;-78
2023/05/10 00:07:55;;;;;;;5.93;3.42;;;;;;;12.41;100.00;100688.34;1052232;28;20306;-78
2023/05/10 00:08:26;;;;;;;6.43;4.45;;;;;;;12.50;100.00;100689.59;1044049;28;20804;-79
2023/05/10 00:08:58;;;;;;;4.88;4.47;;;;;;;12.54;100.00;100684.59;1047923;28;20297;-79
2023/05/10 00:09:29;;;;;;;6.13;4.72;;;;;;;12.42;100.00;100687.28;1047691;28;20306;-79
2023/05/10 00:10:01;;;;;;;3.97;3.67;;;;;;;12.54;100.00;100684.59;1048715;28;20294;-78
2023/05/10 00:10:33;;;;;;;5.30;3.97;;;;;;;12.42;100.00;100686.47;1052270;28;20652;-78
2023/05/10 00:11:04;;;;;;;3.53;3.17;;;;;;;12.42;100.00;100686.47;1052110;28;20331;-79
2023/05/10 00:11:36;;;;;;;4.63;4.22;;;;;;;12.43;100.00;100688.91;1052582;28;20290;-79
2023/05/10 00:12:07;;;;;;;4.97;3.67;;;;;;;12.46;100.00;100683.09;1049386;28;20290;-79
2023/05/10 00:12:39;;;;;;;5.68;3.42;;;;;;;12.50;100.00;100678.91;1052035;28;20302;-79
2023/05/10 00:13:11;;;;;;;4.03;3.60;;;;;;;12.42;100.00;100687.28;1052491;28;20290;-78
2023/05/10 00:13:43;;;;;;;4.68;3.85;;;;;;;12.43;100.00;100686.25;1052772;28;20297;-78
2023/05/10 00:14:15;;;;;;;5.85;4.40;;;;;;;12.37;100.00;100685.31;1052238;28;20293;-79
2023/05/10 00:14:46;;;;;;;4.57;4.18;;;;;;;12.39;100.00;100687.75;1051884;28;20306;-79
2023/05/10 00:15:18;;;;;;;4.38;3.70;;;;;;;12.38;100.00;100686.13;1052084;28;20293;-79
2023/05/10 00:15:50;;;;;;;4.28;3.88;;;;;;;12.37;100.00;100687.19;1052503;28;20444;-79
2023/05/10 00:16:22;;;;;;;5.80;3.72;;;;;;;12.32;100.00;100676.34;1052197;28;20297;-79
2023/05/10 00:16:53;;;;;;;5.07;4.57;;;;;;;12.32;100.00;100687.03;1051872;28;20673;-79
2023/05/10 00:17:25;;;;;;;8.40;5.22;;;;;;;12.31;100.00;100685.41;1052380;28;20293;-79
2023/05/10 00:17:57;;;;;;;4.90;4.45;;;;;;;12.43;100.00;100686.25;1051865;28;20791;-79
2023/05/10 00:18:28;;;;;;;7.90;4.15;;;;;;;12.42;100.00;100691.81;1052387;28;20706;-79
2023/05/10 00:19:00;;;;;;;7.82;4.50;;;;;;;12.37;100.00;100684.50;1052168;28;20293;-79
2023/05/10 00:19:31;;;;;;;8.15;5.60;;;;;;;12.45;100.00;100692.16;1051805;28;20298;-79
2023/05/10 00:20:04;;;;;;;5.05;4.53;;;;;;;12.40;100.00;100683.22;1052157;28;20725;-79
2023/05/10 00:20:36;;;;;;;6.15;4.15;;;;;;;12.42;100.00;100676.59;1052087;28;20321;-78
2023/05/10 00:21:07;;;;;;;7.15;5.28;;;;;;;12.27;100.00;100684.25;1052182;28;20821;-79
2023/05/10 00:21:39;;;;;;;5.00;4.53;;;;;;;12.32;100.00;100681.69;1051909;28;20286;-79
2023/05/10 00:22:11;;;;;;;5.20;4.30;;;;;;;12.37;100.00;100684.50;1047589;28;20348;-78
2023/05/10 00:22:42;;;;;;;5.65;5.05;;;;;;;12.46;100.00;100682.28;1050093;28;20352;-79
2023/05/10 00:23:14;;;;;;;4.88;4.38;;;;;;;12.32;100.00;100682.50;1048066;28;20298;-79
2023/05/10 00:23:46;;;;;;;5.15;4.65;;;;;;;12.36;100.00;100680.22;1043845;28;20696;-79
2023/05/10 00:24:17;;;;;;;5.57;4.72;;;;;;;12.35;100.00;100681.25;1048005;28;20678;-78
2023/05/10 00:24:49;;;;;;;5.38;4.22;;;;;;;12.28;100.00;100685.88;1043923;28;20789;-79
2023/05/10 00:25:39;;;;;;;5.90;4.78;;;;;;;12.32;100.00;100687.03;1046300;28;20652;-78
2023/05/10 00:26:10;;;;;;;4.72;4.18;;;;;;;12.33;100.00;100678.00;1050852;28;20304;-78
2023/05/10 00:26:42;;;;;;;5.72;5.22;;;;;;;12.42;100.00;100681.13;1046564;28;20303;-78
2023/05/10 00:27:14;;;;;;;6.50;4.05;;;;;;;12.49;100.00;100685.31;1043653;28;20382;-78
2023/05/10 00:27:45;;;;;;;6.72;4.78;;;;;;;12.50;100.00;100684.25;1043341;28;20677;-78
2023/05/10 00:28:17;;;;;;;5.05;4.55;;;;;;;12.52;100.00;100684.84;1048701;28;20290;-78
2023/05/10 00:28:49;;;;;;;5.60;5.10;;;;;;;12.54;100.00;100679.25;1048810;28;20302;-78
2023/05/10 00:29:22;;;;;;;5.88;5.32;;;;;;;12.55;100.00;100680.88;1051908;28;20381;-78
2023/05/10 00:29:53;;;;;;;5.78;5.18;;;;;;;12.53;100.00;100678.44;1045951;28;20294;-78
2023/05/10 00:30:25;;;;;;;7.45;5.30;;;;;;;12.54;100.00;100676.59;1038745;28;20315;-79
2023/05/10 00:30:56;;;;;;;7.25;4.50;;;;;;;12.52;100.00;100676.81;1037526;28;20296;-78
2023/05/10 00:31:28;;;;;;;5.88;5.18;;;;;;;12.50;100.00;100678.91;1042580;28;20304;-78
2023/05/10 00:32:01;;;;;;;5.10;4.60;;;;;;;12.54;100.00;100671.25;1049015;28;20295;-78
2023/05/10 00:32:33;;;;;;;6.95;5.03;;;;;;;12.46;100.00;100677.75;1048829;28;20373;-78
2023/05/10 00:33:05;;;;;;;6.40;5.80;;;;;;;12.38;100.00;100676.25;1048044;28;20298;-78
2023/05/10 00:33:36;;;;;;;4.80;4.40;;;;;;;12.42;100.00;100671.25;1046779;28;20310;-78
2023/05/10 00:34:08;;;;;;;6.30;5.13;;;;;;;12.50;100.00;100673.56;1043658;28;20304;-78
2023/05/10 00:34:40;;;;;;;6.40;5.80;;;;;;;12.48;100.00;100681.00;1052153;28;20286;-78
2023/05/10 00:35:12;;;;;;;8.93;5.53;;;;;;;12.46;100.00;100671.59;1052170;28;20924;-78
2023/05/10 00:35:43;;;;;;;6.82;5.50;;;;;;;12.45;100.00;100676.13;1052006;28;20806;-78
2023/05/10 00:36:15;;;;;;;5.45;4.78;;;;;;;12.37;100.00;100671.16;1051993;28;20653;-78
2023/05/10 00:36:47;;;;;;;6.97;5.38;;;;;;;12.36;100.00;100664.19;1052131;28;20304;-78
2023/05/10 00:37:18;;;;;;;7.28;6.57;;;;;;;12.43;100.00;100672.06;1051456;28;20309;-78
2023/05/10 00:37:50;;;;;;;7.57;5.60;;;;;;;12.52;100.00;100676.00;1048295;28;20299;-78
2023/05/10 00:38:21;;;;;;;8.48;5.95;;;;;;;12.54;100.00;100680.06;1043913;28;20299;-78
2023/05/10 00:38:53;;;;;;;8.20;6.13;;;;;;;12.57;100.00;100674.25;1047511;28;20309;-78
2023/05/10 00:39:26;;;;;;;6.25;5.75;;;;;;;12.60;100.00;100673.81;1044835;28;20303;-78
2023/05/10 00:39:57;;;;;;;6.93;5.82;;;;;;;12.52;100.00;100676.81;1043470;28;20342;-79
2023/05/10 00:40:30;;;;;;;6.63;5.95;;;;;;;12.48;100.00;100673.00;1049498;28;20291;-78
2023/05/10 00:41:06;;;;;;;7.50;5.80;;;;;;;12.47;100.00;100670.56;1042540;28;20869;-78
2023/05/10 00:41:39;;;;;;;6.20;5.60;;;;;;;12.51;100.00;100675.19;1037640;28;20802;-78
2023/05/10 00:42:11;;;;;;;6.82;6.13;;;;;;;12.57;100.00;100673.44;1034987;28;20336;-78
2023/05/10 00:42:43;;;;;;;6.10;5.55;;;;;;;12.58;100.00;100675.06;1040615;28;20300;-78
2023/05/10 00:43:14;;;;;;;9.30;5.95;;;;;;;12.62;100.00;100671.72;1045404;28;20726;-78
2023/05/10 00:43:46;;;;;;;7.30;6.32;;;;;;;12.61;100.00;100670.09;1043103;28;20307;-78
2023/05/10 00:44:18;;;;;;;7.10;6.40;;;;;;;12.57;100.00;100663.56;1039479;28;20370;-78
2023/05/10 00:44:50;;;;;;;7.45;6.57;;;;;;;12.59;100.00;100664.16;1036667;28;20431;-77
2023/05/10 00:45:21;;;;;;;8.05;6.28;;;;;;;12.58;100.00;100659.84;1039528;28;20371;-78
2023/05/10 00:45:53;;;;;;;10.43;5.60;;;;;;;12.62;100.00;100661.03;1043923;28;20314;-78
2023/05/10 00:46:25;;;;;;;7.65;6.78;;;;;;;12.56;100.00;100672.63;1044140;28;20319;-78
2023/05/10 00:46:58;;;;;;;7.80;7.05;;;;;;;12.50;100.00;100670.91;1045265;28;20302;-77
2023/05/10 00:47:29;;;;;;;7.47;6.65;;;;;;;12.56;100.00;100674.50;1034993;28;20313;-78
2023/05/10 00:48:02;;;;;;;10.00;7.25;;;;;;;12.57;100.00;100668.91;1040139;28;20296;-77
2023/05/10 00:48:34;;;;;;;6.80;6.05;;;;;;;12.63;100.00;100668.00;1043515;28;20303;-77
2023/05/10 00:49:06;;;;;;;11.07;6.82;;;;;;;12.57;100.00;100668.09;1040917;28;20292;-80
2023/05/10 00:49:37;;;;;;;7.40;6.57;;;;;;;12.61;100.00;100662.09;1043081;28;20295;-78
2023/05/10 00:50:09;;;;;;;7.75;6.95;;;;;;;12.61;100.00;100664.75;1044480;28;20809;-78
2023/05/10 00:50:41;;;;;;;7.97;6.53;;;;;;;12.62;100.00;100669.06;1048715;28;20307;-78
2023/05/10 00:51:13;;;;;;;7.20;6.28;;;;;;;12.56;100.00;100661.94;1051862;28;20306;-77
2023/05/10 00:51:45;;;;;;;7.78;6.85;;;;;;;12.61;100.00;100663.94;1052000;28;20398;-77
2023/05/10 00:52:16;;;;;;;9.13;7.13;;;;;;;12.56;100.00;100661.94;1052308;28;20795;-78
2023/05/10 00:52:49;;;;;;;6.90;6.22;;;;;;;12.62;100.00;100655.69;1047508;28;20310;-77
2023/05/10 00:53:21;;;;;;;9.35;6.03;;;;;;;12.61;100.00;100656.75;1043783;28;20657;-78
2023/05/10 00:53:53;;;;;;;7.47;6.50;;;;;;;12.54;100.00;100664.03;1039620;28;20834;-78
2023/05/10 00:54:24;;;;;;;7.43;6.72;;;;;;;12.57;100.00;100658.22;1040888;28;20370;-78
2023/05/10 00:54:56;;;;;;;7.00;6.30;;;;;;;12.59;100.00;100664.16;1044393;28;20307;-78
2023/05/10 00:55:28;;;;;;;7.50;6.53;;;;;;;12.59;100.00;100664.16;1039110;28;20299;-77
2023/05/10 00:56:00;;;;;;;8.63;7.82;;;;;;;12.54;100.00;100664.03;1040059;28;20292;-78
2023/05/10 00:56:31;;;;;;;6.60;5.90;;;;;;;12.55;100.00;100665.66;1044031;28;20991;-77
2023/05/10 00:57:03;;;;;;;7.60;6.78;;;;;;;12.57;100.00;100668.91;1048013;28;20305;-77
2023/05/10 00:57:35;;;;;;;7.88;7.07;;;;;;;12.55;100.00;100671.00;1043351;28;20311;-77
2023/05/10 00:58:07;;;;;;;8.32;7.53;;;;;;;12.56;100.00;100661.94;1043341;28;20308;-77
2023/05/10 00:58:42;;;;;;;7.50;6.78;;;;;;;12.55;100.00;100671.00;1042920;28;20299;-77
2023/05/10 00:59:13;;;;;;;10.27;7.55;;;;;;;12.58;100.00;100665.19;1043657;28;20347;-78
2023/05/10 00:59:45;;;;;;;8.90;7.68;;;;;;;12.57;100.00;100662.75;1039380;28;20797;-78
2023/05/10 01:00:18;;;;;;;7.13;6.50;;;;;;;12.55;100.00;100665.66;1041570;28;20308;-78
2023/05/10 01:00:50;;;;;;;9.25;6.43;;;;;;;12.59;100.00;100660.66;1039420;28;20319;-78
2023/05/10 01:01:23;;;;;;;12.05;8.10;;;;;;;12.44;100.00;100666.50;1036263;28;20305;-79
2023/05/10 01:01:55;;;;;;;8.60;7.70;;;;;;;12.44;100.00;100661.16;1040513;28;20370;-77
2023/05/10 01:02:27;;;;;;;6.72;6.20;;;;;;;12.53;100.00;100667.75;1041425;28;20311;-78
2023/05/10 01:03:01;;;;;;;8.60;7.38;;;;;;;12.39;100.00;100666.38;1043670;28;20336;-78
2023/05/10 01:03:33;;;;;;;7.20;6.55;;;;;;;12.37;100.00;100668.47;1044034;28;20311;-78
2023/05/10 01:04:05;;;;;;;7.00;6.30;;;;;;;12.44;100.00;100669.16;1038216;28;20522;-78
2023/05/10 01:04:37;;;;;;;8.70;6.88;;;;;;;12.38;100.00;100660.22;1034480;28;20305;-78
2023/05/10 01:05:09;;;;;;;7.30;6.60;;;;;;;12.43;100.00;100664.88;1032886;28;20300;-78
2023/05/10 01:05:41;;;;;;;8.45;6.72;;;;;;;12.45;100.00;100670.78;1035301;28;20308;-78
2023/05/10 01:06:12;;;;;;;7.00;6.40;;;;;;;12.43;100.00;100672.88;1040617;28;20300;-78
2023/05/10 01:06:44;;;;;;;7.07;6.38;;;;;;;12.45;100.00;100665.44;1048565;28;20656;-78
2023/05/10 01:07:16;;;;;;;7.18;6.57;;;;;;;12.45;100.00;100667.31;1051106;28;20297;-78
2023/05/10 01:07:48;;;;;;;8.18;7.30;;;;;;;12.47;100.00;100668.69;1043359;28;20307;-78
2023/05/10 01:08:20;;;;;;;9.35;6.97;;;;;;;12.44;100.00;100668.34;1040129;28;20304;-78
2023/05/10 01:08:51;;;;;;;8.00;7.20;;;;;;;12.36;100.00;100666.84;1043489;28;20295;-78
2023/05/10 01:09:26;;;;;;;7.03;6.38;;;;;;;12.35;100.00;100667.91;1044240;28;20657;-78
2023/05/10 01:09:57;;;;;;;8.40;6.28;;;;;;;12.40;100.00;100672.53;1048451;28;20393;-78
2023/05/10 01:10:30;;;;;;;6.80;6.10;;;;;;;12.42;100.00;100665.09;1047843;28;20700;-78
2023/05/10 01:11:02;;;;;;;8.13;7.32;;;;;;;12.35;100.00;100666.03;1043963;28;20562;-78
2023/05/10 01:11:38;;;;;;;7.50;6.72;;;;;;;12.37;100.00;100668.47;1040315;28;20307;-78
2023/05/10 01:12:09;;;;;;;11.60;7.25;;;;;;;12.36;100.00;100672.19;1040388;28;20371;-77
2023/05/10 01:12:45;;;;;;;7.72;6.95;;;;;;;12.24;100.00;100664.16;1036334;28;20308;-78
2023/05/10 01:13:30;;;;;;;7.43;6.57;;;;;;;12.06;100.00;100665.09;1044939;28;20299;-78
2023/05/10 01:14:02;;;;;;;8.50;7.03;;;;;;;12.20;100.00;100664.84;1050837;28;20294;-78
2023/05/10 01:14:35;;;;;;;7.63;6.82;;;;;;;12.27;100.00;100670.91;1049215;28;20320;-78
2023/05/10 01:15:08;;;;;;;7.47;6.22;;;;;;;12.21;100.00;100663.81;1044615;28;20335;-78
2023/05/10 01:15:40;;;;;;;8.55;7.03;;;;;;;12.22;100.00;100666.25;1039169;28;20304;-78
2023/05/10 01:16:13;;;;;;;8.48;6.45;;;;;;;12.30;100.00;100663.22;1036996;28;20779;-78
2023/05/10 01:16:47;;;;;;;7.70;6.82;;;;;;;12.25;100.00;100656.97;1036054;28;20313;-78
2023/05/10 01:17:19;;;;;;;9.77;8.38;;;;;;;12.21;100.00;100664.63;1034921;28;20296;-78
2023/05/10 01:17:52;;;;;;;9.63;7.38;;;;;;;12.26;100.00;100667.41;1039521;28;20324;-78
2023/05/10 01:18:24;;;;;;;8.60;7.75;;;;;;;12.19;100.00;100665.91;1035874;28;20368;-78
2023/05/10 01:18:56;;;;;;;7.55;6.85;;;;;;;12.23;100.00;100667.06;1036481;28;20308;-78
2023/05/10 01:19:29;;;;;;;8.13;7.32;;;;;;;12.27;100.00;100668.22;1039817;28;20292;-78
2023/05/10 01:20:01;;;;;;;8.45;7.00;;;;;;;12.33;100.00;100670.00;1039768;28;20291;-78
2023/05/10 01:20:40;;;;;;;8.93;8.02;;;;;;;12.31;100.00;100664.03;1035293;28;20645;-78
2023/05/10 01:21:18;;;;;;;7.97;6.85;;;;;;;12.13;100.00;100661.50;1043758;28;20302;-78
2023/05/10 01:21:56;;;;;;;8.57;7.57;;;;;;;12.27;100.00;100665.56;1043825;28;20299;-78
2023/05/10 01:22:50;;;;;;;11.10;7.32;;;;;;;12.13;100.00;100666.84;1051051;28;20680;-78
2023/05/10 01:23:44;;;;;;;9.45;6.70;;;;;;;12.20;100.00;100663.00;1049823;28;20394;-78
2023/05/10 01:24:27;;;;;;;7.80;6.97;;;;;;;12.12;100.00;100668.69;1052000;28;20649;-78
2023/05/10 01:25:01;;;;;;;7.82;6.78;;;;;;;12.19;100.00;100671.25;1050199;28;20314;-78
2023/05/10 01:25:47;;;;;;;7.65;6.85;;;;;;;12.10;100.00;100667.31;1051939;28;20810;-78
2023/05/10 01:26:20;;;;;;;6.88;5.90;;;;;;;12.23;100.00;100672.41;1051169;28;20294;-78
2023/05/10 01:27:07;;;;;;;9.18;7.13;;;;;;;12.10;100.00;100672.63;1051302;28;20298;-78
2023/05/10 01:27:50;;;;;;;8.27;6.47;;;;;;;12.06;100.00;100673.09;1051949;28;20293;-78
2023/05/10 01:28:42;;;;;;;9.88;6.57;;;;;;;12.17;100.00;100676.00;1052051;28;20735;-78
2023/05/10 01:29:29;;;;;;;7.10;6.32;;;;;;;12.27;100.00;100668.22;1045838;28;20805;-78
2023/05/10 01:30:26;;;;;;;7.72;6.70;;;;;;;12.23;100.00;100667.06;1043178;28;20307;-78
2023/05/10 01:31:23;;;;;;;8.65;6.90;;;;;;;12.21;100.00;100675.31;1046741;28;20661;-78
2023/05/10 01:32:07;;;;;;;9.10;6.95;;;;;;;12.14;100.00;100665.78;1051368;28;20684;-78
2023/05/10 01:33:05;;;;;;;10.55;7.05;;;;;;;12.22;100.00;100673.44;1047704;28;20649;-78
2023/05/10 01:33:56;;;;;;;9.52;6.65;;;;;;;12.24;100.00;100671.34;1047694;28;20313;-78
2023/05/10 01:34:35;;;;;;;8.98;7.20;;;;;;;11.98;100.00;100670.75;1045919;28;20856;-78
2023/05/10 01:35:21;;;;;;;9.18;7.20;;;;;;;12.16;100.00;100669.03;1042245;28;20179;-78
2023/05/10 01:36:02;;;;;;;10.63;6.38;;;;;;;12.09;100.00;100671.00;1043084;28;20291;-78
2023/05/10 01:36:40;;;;;;;8.45;6.50;;;;;;;12.10;100.00;100667.31;1043478;28;20441;-79
2023/05/10 01:37:16;;;;;;;9.60;7.35;;;;;;;12.12;100.00;100682.03;1043710;28;20049;-78
2023/05/10 01:37:56;;;;;;;7.28;6.57;;;;;;;12.04;100.00;100677.81;1036910;28;20699;-78
2023/05/10 01:39:02;;;;;;;7.72;6.72;;;;;;;12.18;100.00;100672.28;1042681;28;20291;-79
2023/05/10 01:39:44;;;;;;;7.28;6.30;;;;;;;12.28;100.00;100676.00;1049425;28;20129;-78
2023/05/10 01:40:31;;;;;;;10.18;7.38;;;;;;;12.29;100.00;100679.50;1045297;28;20299;-78
2023/05/10 01:41:25;;;;;;;8.90;7.43;;;;;;;12.32;100.00;100671.00;1043495;28;20310;-78
2023/05/10 01:42:09;;;;;;;9.07;7.32;;;;;;;12.24;100.00;100674.84;1052937;28;20297;-78
2023/05/10 01:42:47;;;;;;;10.00;7.35;;;;;;;12.26;100.00;100671.94;1052847;28;20306;-78
2023/05/10 01:43:28;;;;;;;9.23;7.45;;;;;;;12.22;100.00;100676.13;1055876;28;20301;-78
2023/05/10 01:44:29;;;;;;;10.85;7.97;;;;;;;12.20;100.00;100671.00;1048037;28;20784;-79
2023/05/10 01:45:18;;;;;;;8.75;7.07;;;;;;;12.36;100.00;100672.19;1046179;28;20221;-77
2023/05/10 01:46:12;;;;;;;10.63;7.57;;;;;;;12.25;100.00;100671.13;1047554;28;20078;-78
2023/05/10 01:46:51;;;;;;;9.57;7.60;;;;;;;12.19;100.00;100677.41;1040927;28;20296;-78
2023/05/10 01:47:42;;;;;;;13.63;7.15;;;;;;;12.23;100.00;100680.41;1039218;28;20300;-78
2023/05/10 01:48:14;;;;;;;9.55;8.00;;;;;;;12.06;100.00;100666.94;1039400;28;20304;-78
2023/05/10 01:48:52;;;;;;;12.93;8.00;;;;;;;12.15;100.00;100670.91;1042889;28;20044;-78
2023/05/10 01:49:26;;;;;;;10.25;8.43;;;;;;;12.25;100.00;100675.66;1039027;28;20526;-78
2023/05/10 01:50:04;;;;;;;9.43;7.85;;;;;;;12.27;100.00;100668.22;1041159;28;20458;-78
2023/05/10 01:50:38;;;;;;;11.20;8.05;;;;;;;12.27;100.00;100670.91;1043205;28;20821;-78
2023/05/10 01:51:10;;;;;;;11.52;8.52;;;;;;;12.31;100.00;100664.03;1035251;28;20313;-78
2023/05/10 01:51:47;;;;;;;9.85;8.45;;;;;;;12.27;100.00;100673.56;1039365;28;20385;-78
2023/05/10 01:52:22;;;;;;;8.52;7.65;;;;;;;12.24;100.00;100669.50;1043554;28;20306;-79
2023/05/10 01:52:55;;;;;;;11.00;7.93;;;;;;;12.34;100.00;100668.94;1036883;28;20297;-77
2023/05/10 01:53:27;;;;;;;14.15;8.85;;;;;;;12.32;100.00;100671.81;1040887;28;20338;-78
2023/05/10 01:54:02;;;;;;;14.38;10.60;;;;;;;12.35;100.00;100670.56;1040602;28;20572;-78
2023/05/10 01:54:35;;;;;;;12.90;9.30;;;;;;;12.38;100.00;100670.09;1041863;28;20808;-78
2023/05/10 01:55:09;;;;;;;11.93;9.05;;;;;;;12.37;100.00;100679.16;1047447;28;20290;-78
2023/05/10 01:55:49;;;;;;;9.93;8.57;;;;;;;12.35;100.00;100666.03;1045335;28;20294;-78
2023/05/10 01:56:24;;;;;;;10.45;8.85;;;;;;;12.33;100.00;100673.47;1041532;28;20346;-77
2023/05/10 01:56:59;;;;;;;10.77;8.90;;;;;;;12.36;100.00;100661.50;1039557;28;20315;-78
2023/05/10 01:57:36;;;;;;;11.48;8.02;;;;;;;12.36;100.00;100667.66;1047594;28;20464;-79
2023/05/10 01:58:10;;;;;;;10.05;8.25;;;;;;;12.39;100.00;100671.72;1047496;28;20287;-78
2023/05/10 01:58:45;;;;;;;12.48;8.82;;;;;;;12.39;100.00;100669.06;1045305;28;20445;-78
2023/05/10 01:59:19;;;;;;;12.07;8.40;;;;;;;12.40;100.00;100668.00;1041165;28;20647;-78
2023/05/10 01:59:51;;;;;;;11.13;7.72;;;;;;;12.46;100.00;100672.41;1035936;28;20381;-78
2023/05/10 02:00:23;;;;;;;12.82;9.20;;;;;;;12.38;100.00;100667.44;1035245;28;20300;-78
2023/05/10 02:00:58;;;;;;;11.95;9.25;;;;;;;12.31;100.00;100672.88;1041404;28;20302;-78
2023/05/10 02:01:30;;;;;;;15.52;9.90;;;;;;;12.18;100.00;100670.44;1042545;28;20833;-78
2023/05/10 02:02:04;;;;;;;10.52;8.32;;;;;;;12.29;100.00;100668.81;1047239;28;20298;-78
2023/05/10 02:02:38;;;;;;;11.93;9.32;;;;;;;12.27;100.00;100673.56;1039054;28;20315;-78
2023/05/10 02:03:11;;;;;;;36.17;12.80;;;;;;;12.24;100.00;100674.03;1047463;28;20298;-78
2023/05/10 02:03:43;;;;;;;11.52;10.18;;;;;;;12.15;100.00;100673.56;1039437;28;20324;-78
2023/05/10 02:04:16;;;;;;;14.20;8.82;;;;;;;12.20;100.00;100667.53;1044136;28;20315;-78
2023/05/10 02:04:51;;;;;;;14.88;9.82;;;;;;;12.22;100.00;100670.78;1035276;28;20308;-79
2023/05/10 02:05:22;;;;;;;12.68;9.23;;;;;;;12.28;100.00;100667.19;1036989;28;20304;-78
2023/05/10 02:05:55;;;;;;;12.02;9.38;;;;;;;12.32;100.00;100668.34;1040564;28;20390;-78
2023/05/10 02:06:26;;;;;;;19.35;9.65;;;;;;;12.26;100.00;100663.94;1040432;28;20334;-78
2023/05/10 02:06:58;;;;;;;14.35;10.15;;;;;;;12.28;100.00;100670.66;1042898;28;20303;-78
2023/05/10 02:07:32;;;;;;;14.32;10.07;;;;;;;12.28;100.00;100669.84;1039448;28;21030;-78
2023/05/10 02:08:06;;;;;;;11.43;9.63;;;;;;;12.31;100.00;100669.38;1036073;28;20300;-78
2023/05/10 02:08:38;;;;;;;14.52;9.65;;;;;;;12.31;100.00;100674.72;1035252;28;20302;-78
2023/05/10 02:09:11;;;;;;;11.75;9.80;;;;;;;12.24;100.00;100669.50;1031426;28;20309;-78
2023/05/10 02:09:47;;;;;;;10.60;8.73;;;;;;;12.34;100.00;100663.59;1038011;28;20296;-78
2023/05/10 02:10:19;;;;;;;18.25;10.40;;;;;;;12.31;100.00;100664.03;1043301;28;20685;-78
2023/05/10 02:10:54;;;;;;;13.35;9.95;;;;;;;12.28;100.00;100675.19;1041910;28;20394;-78
2023/05/10 02:11:27;;;;;;;13.13;10.38;;;;;;;12.23;100.00;100673.22;1043465;28;20768;-78
2023/05/10 02:12:02;;;;;;;13.00;10.65;;;;;;;12.29;100.00;100671.47;1043341;28;20315;-78
2023/05/10 02:12:38;;;;;;;14.15;9.68;;;;;;;12.37;100.00;100674.63;1039313;28;20350;-78
2023/05/10 02:13:11;;;;;;;16.08;10.48;;;;;;;12.37;100.00;100677.31;1044597;28;20306;-78
2023/05/10 02:13:43;;;;;;;14.88;10.68;;;;;;;12.35;100.00;100678.59;1040559;28;20963;-78
2023/05/10 02:14:15;;;;;;;18.17;11.10;;;;;;;12.29;100.00;100682.16;1041021;28;20300;-78
2023/05/10 02:14:47;;;;;;;14.77;10.75;;;;;;;12.34;100.00;100685.78;1039471;28;20356;-78
2023/05/10 02:15:24;;;;;;;13.88;10.27;;;;;;;12.40;100.00;100680.56;1040456;28;20292;-78
2023/05/10 02:15:56;;;;;;;17.75;11.48;;;;;;;12.27;100.00;100678.91;1044257;28;20669;-78
2023/05/10 02:16:30;;;;;;;21.13;12.23;;;;;;;12.29;100.00;100676.81;1040487;28;20308;-78
2023/05/10 02:17:05;;;;;;;15.68;10.45;;;;;;;12.28;100.00;100684.00;1043059;28;20441;-78
2023/05/10 02:17:37;;;;;;;16.77;10.55;;;;;;;12.35;100.00;100683.94;1040596;28;20394;-78
2023/05/10 02:18:10;;;;;;;14.02;11.27;;;;;;;12.37;100.00;100685.31;1048810;28;20677;-78
2023/05/10 02:18:42;;;;;;;14.18;10.70;;;;;;;12.34;100.00;100684.97;1047310;28;20295;-78
2023/05/10 02:19:14;;;;;;;15.02;10.93;;;;;;;12.36;100.00;100678.34;1042990;28;20777;-78
2023/05/10 02:19:47;;;;;;;15.80;11.70;;;;;;;12.39;100.00;100682.41;1038144;28;20318;-78
2023/05/10 02:20:19;;;;;;;18.65;12.32;;;;;;;12.41;100.00;100685.66;1039684;28;20303;-78
2023/05/10 02:20:52;;;;;;;15.98;12.20;;;;;;;12.35;100.00;100689.28;1036701;28;20827;-78
2023/05/10 02:21:24;;;;;;;17.92;12.27;;;;;;;12.33;100.00;100684.16;1039974;28;20677;-78
2023/05/10 02:21:57;;;;;;;14.95;10.85;;;;;;;12.36;100.00;100688.22;1043577;28;20653;-78
2023/05/10 02:22:29;;;;;;;15.85;10.65;;;;;;;12.39;100.00;100682.41;1042875;28;20296;-78
2023/05/10 02:23:01;;;;;;;15.30;11.27;;;;;;;12.34;100.00;100682.31;1047502;28;20290;-78
2023/05/10 02:23:34;;;;;;;15.45;11.30;;;;;;;12.37;100.00;100688.00;1043549;28;20319;-78
2023/05/10 02:24:07;;;;;;;17.88;11.82;;;;;;;12.40;100.00;100688.56;1043735;28;20287;-79
2023/05/10 02:24:39;;;;;;;17.38;12.32;;;;;;;12.37;100.00;100689.84;1040160;28;20300;-78
2023/05/10 02:25:13;;;;;;;23.70;13.50;;;;;;;12.35;100.00;100691.94;1040042;28;20337;-78
2023/05/10 02:25:45;;;;;;;21.00;13.77;;;;;;;12.33;100.00;100683.34;1040060;28;20296;-78
2023/05/10 02:26:18;;;;;;;22.77;12.48;;;;;;;12.38;100.00;100691.47;1038984;28;21026;-78
2023/05/10 02:26:51;;;;;;;15.43;12.02;;;;;;;12.41;100.00;100684.84;1032267;28;20392;-78
2023/05/10 02:27:23;;;;;;;18.38;12.80;;;;;;;12.43;100.00;100688.91;1030645;28;20301;-78
2023/05/10 02:27:56;;;;;;;19.58;13.35;;;;;;;12.37;100.00;100695.19;1043021;28;20809;-78
2023/05/10 02:28:29;;;;;;;22.30;13.70;;;;;;;12.39;100.00;100687.75;1043200;28;20369;-78
2023/05/10 02:29:03;;;;;;;20.88;14.13;;;;;;;12.38;100.00;100686.13;1041153;28;20300;-78
2023/05/10 02:29:35;;;;;;;24.15;14.48;;;;;;;12.41;100.00;100690.19;1044311;28;20299;-78
2023/05/10 02:30:08;;;;;;;21.00;13.60;;;;;;;12.39;100.00;100687.75;1044163;28;20364;-78
2023/05/10 02:30:40;;;;;;;21.65;14.48;;;;;;;12.45;100.00;100686.81;1044405;28;20748;-78
2023/05/10 02:31:12;;;;;;;19.77;12.45;;;;;;;12.50;100.00;100686.94;1043407;28;20307;-78
2023/05/10 02:31:43;;;;;;;20.60;12.73;;;;;;;12.49;100.00;100690.66;1047852;28;20333;-78
2023/05/10 02:32:16;;;;;;;20.58;14.60;;;;;;;12.47;100.00;100692.75;1042890;28;20299;-78
2023/05/10 02:32:49;;;;;;;24.70;14.75;;;;;;;12.41;100.00;100693.69;1039093;28;20307;-79
2023/05/10 02:33:22;;;;;;;20.27;13.38;;;;;;;12.46;100.00;100688.44;1040801;28;20296;-78
2023/05/10 02:33:54;;;;;;;21.05;13.45;;;;;;;12.48;100.00;100683.69;1035898;28;20316;-78
2023/05/10 02:34:26;;;;;;;19.75;12.68;;;;;;;12.44;100.00;100689.72;1035868;28;20312;-78
2023/05/10 02:34:58;;;;;;;18.20;13.02;;;;;;;12.51;100.00;100696.56;1035780;28;20775;-78
2023/05/10 02:35:30;;;;;;;16.35;12.50;;;;;;;12.46;100.00;100688.44;1036315;28;20307;-79
2023/05/10 02:36:03;;;;;;;19.30;12.70;;;;;;;12.52;100.00;100686.69;1047897;28;20302;-78
2023/05/10 02:36:35;;;;;;;20.50;14.45;;;;;;;12.54;100.00;100685.41;1051393;28;20301;-78
2023/05/10 02:37:08;;;;;;;17.85;12.52;;;;;;;12.56;100.00;100696.69;1046284;28;20356;-78